Time;durP1;ratioP1;P1;durP2;ratioP2;P2;SDS_P1;SDS_P2;PMS_P1;PMS_P2;Temp;Humidity;BMP_temperature;BMP_pressure;BME280_temperature;BME280_humidity;BME280_pressure;Samples;Min_cycle;Max_cycle;Signal;HPM_P1;HPM_P2
2022/01/16 00:01:02;;;;;;;44.13;27.08;;;;;;;-0.74;100.00;102321.84;5033257;28;20060;-76
2022/01/16 00:07:01;;;;;;;56.47;28.73;;;;;;;-0.66;100.00;102342.88;4974950;28;20046;-76
2022/01/16 00:09:27;;;;;;;81.53;33.25;;;;;;;-0.64;100.00;102339.59;5029181;28;20036;-77
2022/01/16 00:11:56;;;;;;;69.68;31.80;;;;;;;-0.59;100.00;102340.78;5047113;28;20051;-76
2022/01/16 00:14:21;;;;;;;74.35;31.58;;;;;;;-0.57;100.00;102338.28;5028352;28;20041;-77
2022/01/16 00:16:57;;;;;;;95.80;35.20;;;;;;;-0.61;100.00;102344.06;5041577;28;20555;-76
2022/01/16 00:19:24;;;;;;;63.97;28.73;;;;;;;-0.63;100.00;102343.06;5045842;28;20029;-76
2022/01/16 00:21:49;;;;;;;108.85;32.20;;;;;;;-0.62;100.00;102334.56;5049099;28;20025;-76
2022/01/16 00:24:15;;;;;;;82.28;32.63;;;;;;;-0.60;100.00;102339.00;5041462;28;20029;-78
2022/01/16 00:26:41;;;;;;;56.47;31.42;;;;;;;-0.59;100.00;102347.59;5031769;28;20106;-77
2022/01/16 00:29:10;;;;;;;54.95;29.83;;;;;;;-0.57;100.00;102340.88;5029767;28;20453;-76
2022/01/16 00:31:37;;;;;;;58.35;33.90;;;;;;;-0.58;100.00;102339.97;5015355;28;20087;-76
2022/01/16 00:34:04;;;;;;;76.45;40.60;;;;;;;-0.58;100.00;102332.22;5030921;28;20068;-75
2022/01/16 00:36:29;;;;;;;142.80;57.28;;;;;;;-0.54;100.00;102348.75;5046422;28;20397;-76
2022/01/16 00:38:57;;;;;;;63.38;32.95;;;;;;;-0.59;100.00;102339.88;5053496;28;20059;-76
2022/01/16 00:41:26;;;;;;;57.85;31.95;;;;;;;-0.59;100.00;102334.72;5052023;28;20031;-76
2022/01/16 00:43:55;;;;;;;67.03;35.95;;;;;;;-0.59;100.00;102340.78;5033560;28;20024;-76
2022/01/16 00:46:21;;;;;;;95.47;37.60;;;;;;;-0.61;100.00;102333.75;5030922;28;20036;-77
2022/01/16 00:48:54;;;;;;;77.03;39.50;;;;;;;-0.65;100.00;102321.50;5034867;28;20520;-76
2022/01/16 00:51:22;;;;;;;69.50;38.03;;;;;;;-0.65;100.00;102316.34;5039706;28;20044;-77
2022/01/16 00:54:11;;;;;;;60.10;33.33;;;;;;;-0.67;100.00;102338.56;5052241;28;20492;-76
2022/01/16 00:57:09;;;;;;;56.58;31.42;;;;;;;-0.66;100.00;102327.44;5053342;28;20024;-75
2022/01/16 01:03:37;;;;;;;71.30;34.65;;;;;;;-0.64;100.00;102289.81;5067726;28;20078;-75
2022/01/16 01:06:20;;;;;;;70.60;35.28;;;;;;;-0.66;100.00;102302.59;5070443;28;20489;-76
2022/01/16 01:08:53;;;;;;;66.85;33.22;;;;;;;-0.64;100.00;102290.69;5047810;28;20037;-76
2022/01/16 01:11:24;;;;;;;60.78;34.00;;;;;;;-0.64;100.00;102306.13;5049761;28;20036;-75
2022/01/16 01:13:57;;;;;;;62.83;32.33;;;;;;;-0.65;100.00;102299.22;5045578;28;20032;-75
2022/01/16 01:16:24;;;;;;;65.60;33.47;;;;;;;-0.65;100.00;102304.34;5055098;28;20024;-77
2022/01/16 01:18:50;;;;;;;67.60;35.63;;;;;;;-0.64;100.00;102301.00;5034599;28;20028;-77
2022/01/16 01:21:28;;;;;;;89.32;40.10;;;;;;;-0.62;100.00;102308.81;5053003;28;20029;-76
2022/01/16 01:24:05;;;;;;;71.97;37.20;;;;;;;-0.59;100.00;102286.72;5053058;28;20143;-75
2022/01/16 01:26:42;;;;;;;86.63;37.78;;;;;;;-0.55;100.00;102292.91;5038986;28;20017;-76
2022/01/16 01:29:08;;;;;;;69.43;34.88;;;;;;;-0.54;100.00;102310.13;5057206;28;20039;-76
2022/01/16 01:31:33;;;;;;;103.68;40.95;;;;;;;-0.55;100.00;102306.69;5035286;28;20024;-75
2022/01/16 01:33:59;;;;;;;107.32;45.53;;;;;;;-0.55;100.00;102298.06;5034828;28;20030;-76
2022/01/16 01:36:26;;;;;;;147.07;66.78;;;;;;;-0.55;100.00;102269.72;5062305;28;20029;-76
2022/01/16 01:38:54;;;;;;;103.75;41.03;;;;;;;-0.57;100.00;102227.56;5055958;28;20040;-76
2022/01/16 01:41:20;;;;;;;73.00;35.80;;;;;;;-0.56;100.00;102222.50;5033067;28;20033;-77
2022/01/16 01:51:57;;;;;;;79.10;40.33;;;;;;;-0.49;100.00;102252.03;5044409;28;20099;-70
2022/01/16 01:55:12;;;;;;;69.95;35.13;;;;;;;-0.44;100.00;102268.66;5031656;28;20040;-70
2022/01/16 01:57:38;;;;;;;88.18;37.38;;;;;;;-0.41;100.00;102273.97;5052705;28;20037;-72
2022/01/16 02:00:17;;;;;;;72.78;37.85;;;;;;;-0.39;100.00;102287.84;5020011;28;20032;-71
2022/01/16 02:06:31;;;;;;;69.22;35.33;;;;;;;-0.33;100.00;102302.75;5060132;28;20047;-70
2022/01/16 02:09:00;;;;;;;91.78;40.55;;;;;;;-0.33;100.00;102307.00;5049892;28;20039;-71
2022/01/16 02:11:29;;;;;;;104.18;38.65;;;;;;;-0.29;100.00;102303.78;5057977;28;20059;-70
2022/01/16 02:14:25;;;;;;;85.82;39.47;;;;;;;-0.28;100.00;102297.84;5060760;28;20020;-71
2022/01/16 02:28:40;;;;;;;92.60;36.88;;;;;;;-0.16;100.00;102324.28;5017520;28;20077;-71
2022/01/16 02:36:47;;;;;;;98.97;40.88;;;;;;;-0.15;100.00;102325.19;5006898;28;20572;-71
2022/01/16 02:39:14;;;;;;;135.15;45.90;;;;;;;-0.16;100.00;102332.00;4972887;28;20053;-72
2022/01/16 02:41:42;;;;;;;84.70;40.38;;;;;;;-0.16;100.00;102320.81;4991282;28;20044;-72
2022/01/16 02:46:58;;;;;;;66.22;36.13;;;;;;;-0.15;100.00;102320.91;4997713;28;20532;-70
2022/01/16 02:49:23;;;;;;;109.10;41.67;;;;;;;-0.16;100.00;102307.94;5047031;28;20478;-71
2022/01/16 02:51:54;;;;;;;112.28;38.58;;;;;;;-0.19;100.00;102300.91;5048231;28;20060;-71
2022/01/16 02:54:24;;;;;;;87.57;41.15;;;;;;;-0.20;100.00;102302.63;5045965;28;20056;-70
2022/01/16 02:56:50;;;;;;;85.18;38.92;;;;;;;-0.19;100.00;102295.78;5048284;28;20056;-70
2022/01/16 02:59:18;;;;;;;139.57;45.42;;;;;;;-0.21;99.85;102287.09;5047290;28;20194;-72
2022/01/16 03:05:19;;;;;;;135.50;41.10;;;;;;;-0.28;99.94;102275.53;5043814;28;20051;-70
2022/01/16 03:07:46;;;;;;;153.18;41.30;;;;;;;-0.35;99.84;102269.16;5048785;28;20029;-70
2022/01/16 03:13:49;;;;;;;116.20;37.10;;;;;;;-0.43;99.53;102262.69;5051360;28;20078;-71
2022/01/16 03:17:00;;;;;;;121.43;41.20;;;;;;;-0.51;99.56;102260.50;4978265;28;20066;-70
2022/01/16 03:22:16;;;;;;;156.73;38.90;;;;;;;-0.60;99.62;102266.03;5031476;28;20500;-69
2022/01/16 03:28:45;;;;;;;144.48;38.55;;;;;;;-0.64;99.70;102258.91;5049087;28;20504;-71
2022/01/16 03:31:17;;;;;;;100.00;39.25;;;;;;;-0.71;99.39;102258.53;4975102;28;20101;-71
2022/01/16 03:33:47;;;;;;;92.43;37.60;;;;;;;-0.71;99.56;102249.94;5002566;28;20037;-69
2022/01/16 03:36:36;;;;;;;97.15;39.63;;;;;;;-0.69;99.67;102245.75;5035161;28;20033;-70
2022/01/16 03:39:09;;;;;;;101.82;38.15;;;;;;;-0.67;99.71;102245.88;5022732;28;20058;-71
2022/01/16 03:41:48;;;;;;;81.82;37.60;;;;;;;-0.67;99.68;102238.16;5030005;28;20037;-69
2022/01/16 03:44:27;;;;;;;83.10;38.83;;;;;;;-0.65;99.81;102236.53;5032144;28;20052;-70
2022/01/16 03:47:24;;;;;;;102.90;37.45;;;;;;;-0.61;99.55;102241.06;5033114;28;20503;-75
2022/01/16 03:49:49;;;;;;;107.32;38.17;;;;;;;-0.62;99.76;102236.72;5025009;28;20029;-75
2022/01/16 03:52:15;;;;;;;82.97;35.15;;;;;;;-0.65;99.55;102237.41;5029848;28;20029;-75
2022/01/16 03:54:43;;;;;;;99.30;40.45;;;;;;;-0.66;99.73;102245.97;4995076;28;20025;-75
2022/01/16 03:57:09;;;;;;;86.85;37.65;;;;;;;-0.64;99.55;102243.47;5014625;28;20037;-74
2022/01/16 03:59:34;;;;;;;93.70;41.70;;;;;;;-0.68;99.61;102237.25;4997007;28;20033;-74
2022/01/16 04:02:12;;;;;;;82.80;39.75;;;;;;;-0.68;99.72;102237.25;5014984;28;20101;-74
2022/01/16 04:04:38;;;;;;;80.30;39.63;;;;;;;-0.66;99.49;102237.34;5008227;28;20091;-74
2022/01/16 04:07:05;;;;;;;88.10;40.45;;;;;;;-0.66;99.65;102245.06;5012733;28;20037;-74
2022/01/16 04:09:40;;;;;;;87.70;41.67;;;;;;;-0.65;99.73;102249.41;5028090;28;20033;-74
2022/01/16 04:12:07;;;;;;;88.78;39.67;;;;;;;-0.61;99.73;102254.81;5010391;28;21696;-75
2022/01/16 04:17:29;;;;;;;84.88;43.10;;;;;;;-0.56;99.83;102247.34;5029584;28;20486;-75
2022/01/16 04:19:54;;;;;;;97.55;43.70;;;;;;;-0.54;99.70;102243.19;5028760;28;20029;-74
2022/01/16 04:22:25;;;;;;;96.53;45.67;;;;;;;-0.53;99.71;102248.41;5008770;28;20045;-75
2022/01/16 04:24:51;;;;;;;;;;;;;;;-0.48;99.58;102240.94;5014317;28;20041;-74
2022/01/16 04:27:16;;;;;;;83.07;39.50;;;;;;;-0.49;99.71;102233.13;5014023;28;19947;-75
2022/01/16 04:29:45;;;;;;;87.95;42.03;;;;;;;-0.48;99.51;102230.63;5011453;28;20037;-74
2022/01/16 04:32:11;;;;;;;79.53;42.40;;;;;;;-0.44;99.72;102237.75;5028289;28;20035;-74
2022/01/16 04:34:44;;;;;;;84.13;41.55;;;;;;;-0.42;99.50;102227.53;5026608;28;20037;-75
2022/01/16 04:37:23;;;;;;;89.90;40.78;;;;;;;-0.43;99.75;102229.22;5025403;28;20046;-74
2022/01/16 04:40:13;;;;;;;85.15;39.40;;;;;;;-0.42;99.85;102236.13;5027023;28;20056;-75
2022/01/16 04:45:35;;;;;;;86.65;44.33;;;;;;;-0.41;99.45;102237.03;5045203;28;20105;-75
2022/01/16 04:48:03;;;;;;;79.85;42.63;;;;;;;-0.40;99.27;102236.25;5044285;28;20037;-75
2022/01/16 04:50:35;;;;;;;75.10;40.53;;;;;;;-0.39;99.76;102230.25;5030845;28;20040;-75
2022/01/16 04:53:13;;;;;;;72.82;40.08;;;;;;;-0.37;99.64;102228.69;5012804;28;20047;-75
2022/01/16 04:55:39;;;;;;;72.95;42.42;;;;;;;-0.37;99.37;102229.56;5048778;28;20116;-75
2022/01/16 04:58:04;;;;;;;71.43;40.70;;;;;;;-0.36;99.51;102231.34;5048394;28;20135;-75
2022/01/16 05:00:30;;;;;;;80.05;40.28;;;;;;;-0.34;99.39;102223.69;5030599;28;20558;-74
2022/01/16 05:03:09;;;;;;;70.90;40.60;;;;;;;-0.36;99.82;102223.59;5024149;28;20128;-75
2022/01/16 05:05:35;;;;;;;75.97;41.47;;;;;;;-0.36;99.75;102228.75;5026444;28;20033;-75
2022/01/16 05:08:00;;;;;;;71.35;42.40;;;;;;;-0.34;99.55;102226.25;5014371;28;20039;-75
2022/01/16 05:18:48;;;;;;;75.30;38.35;;;;;;;-0.28;99.68;102218.00;5042456;28;20107;-74
2022/01/16 05:21:14;;;;;;;73.70;41.67;;;;;;;-0.27;99.77;102217.19;5037446;28;20074;-74
2022/01/16 05:23:42;;;;;;;79.05;45.38;;;;;;;-0.26;99.76;102217.28;5029837;28;20179;-75
2022/01/16 05:26:08;;;;;;;69.80;40.17;;;;;;;-0.23;99.48;102211.38;5049538;28;20522;-74
2022/01/16 05:28:37;;;;;;;78.88;40.33;;;;;;;-0.21;99.91;102210.66;5047837;28;20037;-74
2022/01/16 05:31:04;;;;;;;75.20;43.05;;;;;;;-0.16;99.56;102212.59;5056755;28;21841;-75
2022/01/16 05:33:30;;;;;;;72.40;42.30;;;;;;;-0.15;99.71;102207.53;5031544;28;20182;-74
2022/01/16 05:35:55;;;;;;;70.68;40.63;;;;;;;-0.13;99.54;102208.53;5050130;28;20060;-75
2022/01/16 05:38:21;;;;;;;75.57;42.55;;;;;;;-0.10;99.51;102219.00;5023424;28;20097;-75
2022/01/16 05:40:49;;;;;;;70.22;42.88;;;;;;;-0.06;99.79;102210.63;5051302;28;20044;-74
2022/01/16 05:43:15;;;;;;;75.50;41.85;;;;;;;-0.02;99.58;102219.41;5051131;28;20045;-74
2022/01/16 05:45:41;;;;;;;73.57;43.53;;;;;;;0.00;99.94;102217.81;5019156;28;20042;-74
2022/01/16 05:48:09;;;;;;;70.30;41.25;;;;;;;0.03;99.79;102219.63;5052209;28;20060;-74
2022/01/16 05:50:34;;;;;;;67.60;41.70;;;;;;;0.06;99.69;102224.94;5034769;28;20603;-74
2022/01/16 05:53:01;;;;;;;67.53;41.53;;;;;;;0.10;99.67;102232.03;5051943;28;20036;-75
2022/01/16 05:55:31;;;;;;;80.05;41.72;;;;;;;0.12;99.85;102228.75;5051543;28;20051;-74
2022/01/16 05:57:57;;;;;;;62.43;40.43;;;;;;;0.15;99.88;102220.28;5034793;28;20029;-76
2022/01/16 06:00:23;;;;;;;66.72;39.45;;;;;;;0.18;99.93;102228.19;5027994;28;20363;-75
2022/01/16 06:02:57;;;;;;;67.75;41.25;;;;;;;0.19;99.65;102227.41;5029822;28;20037;-74
2022/01/16 06:05:23;;;;;;;70.70;40.92;;;;;;;0.23;99.63;102220.69;5031167;28;20047;-75
2022/01/16 06:07:58;;;;;;;66.03;41.47;;;;;;;0.26;100.00;102218.28;5035136;28;20480;-75
2022/01/16 06:11:22;;;;;;;72.75;42.65;;;;;;;0.28;99.91;102211.53;5022807;28;20058;-75
2022/01/16 06:13:52;;;;;;;64.13;42.00;;;;;;;0.30;99.83;102217.63;5040775;28;20091;-74
2022/01/16 06:16:20;;;;;;;78.43;42.17;;;;;;;0.34;99.65;102220.47;5018182;28;20135;-75
2022/01/16 06:18:48;;;;;;;65.63;43.05;;;;;;;0.35;99.75;102213.59;5048661;28;20024;-75
2022/01/16 06:21:47;;;;;;;73.63;45.80;;;;;;;0.41;99.82;102218.19;5068017;28;20040;-74
2022/01/16 06:24:14;;;;;;;77.55;45.92;;;;;;;0.43;99.37;102208.84;5046018;28;20032;-75
2022/01/16 06:26:49;;;;;;;78.15;46.47;;;;;;;0.44;99.51;102224.38;5036812;28;20032;-74
2022/01/16 06:29:47;;;;;;;80.68;45.05;;;;;;;0.48;99.82;102222.88;5046586;28;20505;-74
2022/01/16 06:32:13;;;;;;;76.65;44.22;;;;;;;0.52;99.84;102227.38;5042121;28;20126;-75
2022/01/16 06:34:38;;;;;;;79.75;46.45;;;;;;;0.54;99.40;102236.06;5019665;28;20500;-74
2022/01/16 06:37:04;;;;;;;77.95;44.28;;;;;;;0.56;99.50;102229.31;5031441;28;20033;-73
2022/01/16 06:39:29;;;;;;;69.50;43.83;;;;;;;0.60;99.59;102246.69;5016218;28;20425;-75
2022/01/16 06:41:56;;;;;;;74.78;43.40;;;;;;;0.64;99.62;102252.91;5048677;28;20024;-75
2022/01/16 06:44:59;;;;;;;79.25;46.15;;;;;;;0.67;99.89;102245.34;5047761;28;20172;-74
2022/01/16 06:47:24;;;;;;;79.53;46.03;;;;;;;0.71;99.46;102243.81;5031671;28;20863;-74
2022/01/16 06:49:50;;;;;;;77.00;48.85;;;;;;;0.74;99.87;102251.72;4997191;28;20073;-75
2022/01/16 06:52:49;;;;;;;76.70;46.50;;;;;;;0.78;99.66;102251.06;5014810;28;20094;-75
2022/01/16 06:55:43;;;;;;;86.10;47.75;;;;;;;0.81;99.97;102254.66;5021798;28;20084;-75
2022/01/16 06:58:12;;;;;;;73.07;45.72;;;;;;;0.85;99.40;102260.88;5029412;28;20065;-74
2022/01/16 07:00:39;;;;;;;81.47;46.90;;;;;;;0.87;99.38;102256.66;5033969;28;20037;-74
2022/01/16 07:03:22;;;;;;;73.60;45.13;;;;;;;0.90;99.33;102261.97;5022820;28;20389;-75
2022/01/16 07:05:50;;;;;;;73.10;45.55;;;;;;;0.93;99.43;102262.13;5027015;28;20039;-74
2022/01/16 07:08:16;;;;;;;76.18;43.38;;;;;;;0.96;99.43;102258.84;5002445;28;20033;-76
2022/01/16 07:10:41;;;;;;;73.80;44.63;;;;;;;0.97;99.44;102256.31;5037204;28;20029;-76
2022/01/16 07:13:07;;;;;;;74.57;44.13;;;;;;;1.00;99.64;102269.38;5003277;28;20063;-75
2022/01/16 07:15:34;;;;;;;86.45;51.35;;;;;;;1.04;99.22;102271.31;4999243;28;20494;-76
2022/01/16 07:18:00;;;;;;;75.90;45.38;;;;;;;1.07;99.05;102275.75;4980194;28;20034;-75
2022/01/16 07:20:27;;;;;;;77.05;45.55;;;;;;;1.10;99.64;102281.06;5011060;28;20494;-75
2022/01/16 07:22:54;;;;;;;77.13;45.53;;;;;;;1.11;98.99;102282.84;5012596;28;20057;-75
2022/01/16 07:25:20;;;;;;;73.07;44.58;;;;;;;1.13;99.26;102296.69;4993570;28;20042;-76
2022/01/16 07:27:46;;;;;;;76.75;44.28;;;;;;;1.17;99.05;102298.63;5024904;28;20025;-77
2022/01/16 07:30:12;;;;;;;68.68;43.90;;;;;;;1.19;98.64;102307.34;4993784;28;20046;-75
2022/01/16 07:32:39;;;;;;;70.40;44.05;;;;;;;1.21;99.20;102304.84;4996035;28;20033;-75
2022/01/16 07:35:08;;;;;;;68.13;43.60;;;;;;;1.22;99.03;102301.44;4994305;28;20067;-76
2022/01/16 07:37:34;;;;;;;68.45;45.08;;;;;;;1.24;98.59;102312.75;5010131;28;20037;-75
2022/01/16 07:40:00;;;;;;;74.25;42.40;;;;;;;1.26;98.79;102329.19;5031960;28;20496;-76
2022/01/16 07:42:26;;;;;;;68.43;42.75;;;;;;;1.28;98.80;102311.19;5048319;28;20056;-76
2022/01/16 07:44:52;;;;;;;65.45;41.65;;;;;;;1.31;98.84;102314.81;5031854;28;20024;-76
2022/01/16 07:47:18;;;;;;;72.65;42.70;;;;;;;1.32;98.25;102315.69;5030892;28;20436;-75
2022/01/16 07:49:44;;;;;;;69.65;38.63;;;;;;;1.34;98.48;102321.84;5013657;28;20496;-75
2022/01/16 07:52:10;;;;;;;69.65;40.33;;;;;;;1.35;98.29;102340.00;5049147;28;20094;-75
2022/01/16 07:54:35;;;;;;;68.22;41.95;;;;;;;1.38;98.16;102327.25;5028980;28;20032;-75
2022/01/16 07:57:02;;;;;;;72.68;45.15;;;;;;;1.41;98.05;102330.78;5013997;28;20029;-75
2022/01/16 07:59:28;;;;;;;67.55;41.83;;;;;;;1.43;98.30;102357.59;5015180;28;20385;-74
2022/01/16 08:01:53;;;;;;;67.22;41.72;;;;;;;1.45;98.29;102349.09;5033061;28;20043;-75
2022/01/16 08:04:19;;;;;;;58.75;39.25;;;;;;;1.49;97.71;102351.00;5031003;28;20029;-75
2022/01/16 08:06:44;;;;;;;62.75;37.40;;;;;;;1.50;97.87;102345.03;5043881;28;20064;-75
2022/01/16 08:09:12;;;;;;;73.40;42.00;;;;;;;1.54;97.90;102353.84;5029674;28;20043;-74
2022/01/16 08:11:37;;;;;;;59.72;36.90;;;;;;;1.54;97.56;102349.53;5014204;28;20031;-75
2022/01/16 08:14:03;;;;;;;62.60;42.17;;;;;;;1.58;97.39;102341.94;5048616;28;20417;-76
2022/01/16 08:16:28;;;;;;;62.15;37.80;;;;;;;1.59;97.37;102334.25;5049426;28;20024;-76
2022/01/16 08:18:54;;;;;;;56.47;38.10;;;;;;;1.64;97.07;102334.47;5033423;28;20021;-75
2022/01/16 08:21:19;;;;;;;64.53;40.17;;;;;;;1.66;97.50;102328.59;5051660;28;20485;-75
2022/01/16 08:23:45;;;;;;;67.70;41.15;;;;;;;1.69;97.15;102333.03;5047777;28;20107;-76
2022/01/16 08:26:10;;;;;;;63.17;38.53;;;;;;;1.71;97.05;102333.97;5013737;28;20436;-75
2022/01/16 08:28:36;;;;;;;67.78;41.05;;;;;;;1.74;97.13;102326.38;5013942;28;20048;-72
2022/01/16 08:31:01;;;;;;;66.80;39.40;;;;;;;1.76;96.95;102324.75;5047566;28;20482;-76
2022/01/16 08:33:29;;;;;;;66.22;39.83;;;;;;;1.77;96.67;102328.22;5015545;28;20033;-71
2022/01/16 08:35:54;;;;;;;63.63;40.03;;;;;;;1.80;97.20;102318.03;5028787;28;20029;-71
2022/01/16 08:38:22;;;;;;;68.97;38.78;;;;;;;1.81;96.69;102324.97;5014240;28;20071;-71
2022/01/16 08:40:47;;;;;;;61.05;38.90;;;;;;;1.85;97.58;102321.72;5049408;28;20124;-73
2022/01/16 08:43:16;;;;;;;61.55;38.35;;;;;;;1.86;97.39;102323.50;5035770;28;20119;-72
2022/01/16 08:45:42;;;;;;;61.40;38.53;;;;;;;1.90;97.06;102326.28;5057898;28;20028;-72
2022/01/16 08:48:08;;;;;;;61.72;38.10;;;;;;;1.91;97.09;102332.34;5015938;28;20374;-72
2022/01/16 08:50:36;;;;;;;61.45;38.30;;;;;;;1.94;96.78;102337.69;5014485;28;20024;-72
2022/01/16 08:53:01;;;;;;;66.25;39.53;;;;;;;1.97;97.04;102340.41;5054213;28;20109;-73
2022/01/16 08:55:27;;;;;;;59.15;38.22;;;;;;;2.02;97.17;102358.72;5032318;28;20485;-72
2022/01/16 08:57:52;;;;;;;61.63;37.33;;;;;;;2.02;96.76;102354.44;5014699;28;20377;-72
2022/01/16 09:00:18;;;;;;;62.58;39.03;;;;;;;2.04;96.95;102354.50;5032702;28;20029;-72
2022/01/16 09:02:43;;;;;;;66.75;38.13;;;;;;;2.06;96.56;102361.53;5027540;28;20068;-72
2022/01/16 09:05:10;;;;;;;60.03;37.55;;;;;;;2.10;97.28;102361.66;5030659;28;20046;-72
2022/01/16 09:07:35;;;;;;;67.18;40.05;;;;;;;2.12;96.88;102362.63;5067812;28;20422;-72
2022/01/16 09:10:07;;;;;;;61.25;39.45;;;;;;;2.14;97.10;102364.50;5050855;28;20024;-72
2022/01/16 09:12:36;;;;;;;63.00;38.70;;;;;;;2.16;97.13;102377.50;5045663;28;20033;-72
2022/01/16 09:15:07;;;;;;;64.57;37.78;;;;;;;2.18;96.96;102374.13;5057929;28;20040;-73
2022/01/16 09:17:32;;;;;;;63.33;39.78;;;;;;;2.20;97.04;102366.47;5053121;28;20024;-71
2022/01/16 09:19:58;;;;;;;68.35;41.28;;;;;;;2.23;96.81;102377.84;5017893;28;20023;-73
2022/01/16 09:22:23;;;;;;;66.82;39.72;;;;;;;2.27;96.77;102376.31;5035062;28;20036;-72
2022/01/16 09:24:49;;;;;;;74.55;40.55;;;;;;;2.32;97.04;102381.69;5035019;28;20027;-72
2022/01/16 09:27:19;;;;;;;69.65;40.85;;;;;;;2.34;96.20;102382.63;5034866;28;20083;-73
2022/01/16 09:29:45;;;;;;;72.22;43.00;;;;;;;2.37;96.73;102382.75;5033707;28;20020;-72
2022/01/16 09:32:13;;;;;;;68.88;39.60;;;;;;;2.44;96.72;102392.59;5048621;28;20043;-72
2022/01/16 09:34:39;;;;;;;63.78;39.47;;;;;;;2.46;96.98;102400.41;5019377;28;20120;-72
2022/01/16 09:37:09;;;;;;;70.75;40.60;;;;;;;2.48;96.42;102394.50;5034466;28;20562;-72
2022/01/16 09:39:38;;;;;;;77.70;42.20;;;;;;;2.50;96.78;102392.91;5029755;28;20114;-71
2022/01/16 09:42:06;;;;;;;70.40;40.05;;;;;;;2.55;96.45;102398.28;5013339;28;20570;-71
2022/01/16 09:44:37;;;;;;;72.05;44.33;;;;;;;2.59;96.16;102397.59;5046656;28;20040;-73
2022/01/16 09:47:03;;;;;;;84.20;42.78;;;;;;;2.62;96.34;102408.09;5050516;28;20488;-73
2022/01/16 09:49:29;;;;;;;81.43;44.25;;;;;;;2.66;96.56;102410.00;5030975;28;20033;-73
2022/01/16 09:51:55;;;;;;;69.22;41.88;;;;;;;2.71;96.62;102407.63;5031786;28;20033;-72
2022/01/16 09:54:24;;;;;;;81.38;44.55;;;;;;;2.74;96.61;102395.72;5031018;28;20025;-72
2022/01/16 09:56:50;;;;;;;82.25;45.30;;;;;;;2.78;96.18;102415.72;5030115;28;20021;-72
2022/01/16 09:59:16;;;;;;;80.97;47.88;;;;;;;2.84;96.72;102419.44;5044498;28;20116;-73
2022/01/16 10:01:41;;;;;;;84.60;47.20;;;;;;;2.87;95.63;102419.56;5043431;28;20158;-72
2022/01/16 10:04:32;;;;;;;90.97;50.10;;;;;;;2.93;96.17;102422.41;5013979;28;20131;-71
2022/01/16 10:07:00;;;;;;;86.28;47.55;;;;;;;2.96;96.08;102425.19;5047697;28;20035;-72
2022/01/16 10:09:26;;;;;;;94.15;50.75;;;;;;;2.99;96.08;102434.75;5048149;28;20033;-72
2022/01/16 10:12:02;;;;;;;91.35;49.90;;;;;;;3.04;96.01;102434.16;5040194;28;20098;-71
2022/01/16 10:14:35;;;;;;;94.35;49.67;;;;;;;3.04;95.89;102438.47;5051030;28;20090;-72
2022/01/16 10:17:12;;;;;;;100.90;52.55;;;;;;;3.07;95.70;102441.19;5052329;28;20541;-72
2022/01/16 10:19:38;;;;;;;103.72;51.55;;;;;;;3.07;96.09;102439.47;5058423;28;20037;-72
2022/01/16 10:22:12;;;;;;;90.30;48.30;;;;;;;3.09;95.22;102453.38;5050032;28;20056;-72
2022/01/16 10:24:41;;;;;;;110.25;55.33;;;;;;;3.11;95.22;102446.56;5037339;28;20025;-72
2022/01/16 10:27:14;;;;;;;106.45;53.22;;;;;;;3.16;95.65;102453.66;5054491;28;20036;-72
2022/01/16 10:29:53;;;;;;;101.00;50.35;;;;;;;3.17;95.13;102450.25;5052041;28;21625;-73
2022/01/16 10:32:26;;;;;;;91.05;50.45;;;;;;;3.23;95.76;102454.00;5055133;28;20036;-72
2022/01/16 10:35:10;;;;;;;95.10;52.78;;;;;;;3.28;95.09;102451.63;5055982;28;20050;-73
2022/01/16 10:37:37;;;;;;;94.35;50.95;;;;;;;3.37;95.50;102461.50;5055362;28;20341;-72
2022/01/16 10:40:16;;;;;;;89.43;50.85;;;;;;;3.47;95.19;102448.13;5039731;28;20118;-72
2022/01/16 10:42:48;;;;;;;100.32;51.47;;;;;;;3.58;95.21;102465.03;5027774;28;20060;-72
2022/01/16 10:45:15;;;;;;;98.93;50.40;;;;;;;3.63;94.83;102471.31;5041366;28;20033;-72
2022/01/16 10:47:47;;;;;;;112.60;53.88;;;;;;;3.70;94.77;102459.47;5017992;28;20038;-72
2022/01/16 11:59:40;;;;;;;74.40;37.70;;;;;;;4.16;92.31;102452.72;5065635;28;20055;-72
2022/01/16 12:02:09;;;;;;;76.03;43.90;;;;;;;4.16;91.83;102457.91;5047792;28;20441;-73
2022/01/16 12:04:34;;;;;;;78.20;41.88;;;;;;;4.13;91.90;102458.66;5035442;28;20075;-72
2022/01/16 12:07:12;;;;;;;78.90;42.08;;;;;;;4.14;92.12;102456.97;5031412;28;20427;-72
2022/01/16 12:09:47;;;;;;;83.07;41.03;;;;;;;4.11;91.85;102462.91;5028671;28;20112;-72
2022/01/16 12:12:13;;;;;;;81.10;45.92;;;;;;;4.09;92.07;102455.88;5031869;28;20065;-75
2022/01/16 12:15:01;;;;;;;82.88;42.85;;;;;;;4.07;92.12;102471.38;5032231;28;20476;-76
2022/01/16 12:17:32;;;;;;;80.03;43.22;;;;;;;4.03;92.22;102458.22;5029600;28;20028;-76
2022/01/16 12:20:20;;;;;;;79.00;41.28;;;;;;;4.03;91.93;102458.22;5024131;28;20098;-75
2022/01/16 12:22:53;;;;;;;82.78;42.03;;;;;;;4.02;92.01;102457.31;5033787;28;20067;-76
2022/01/16 12:25:28;;;;;;;77.40;41.63;;;;;;;3.99;92.06;102452.94;5033919;28;20103;-76
2022/01/16 12:28:09;;;;;;;83.78;41.72;;;;;;;3.99;91.99;102449.41;5026880;28;20361;-76
2022/01/16 12:30:55;;;;;;;84.50;43.60;;;;;;;3.99;92.07;102465.00;5033518;28;20496;-76
2022/01/16 12:33:39;;;;;;;83.30;43.03;;;;;;;4.01;92.47;102476.34;5028631;28;20029;-75
2022/01/16 12:36:12;;;;;;;80.45;44.42;;;;;;;4.02;92.31;102472.03;5030555;28;20362;-75
2022/01/16 12:38:56;;;;;;;83.10;41.80;;;;;;;4.02;92.11;102478.06;5035393;28;20423;-76
2022/01/16 12:41:21;;;;;;;75.05;41.72;;;;;;;3.99;92.02;102465.91;5031844;28;20388;-76
2022/01/16 12:43:57;;;;;;;74.07;40.22;;;;;;;4.03;92.31;102469.47;5034870;28;20473;-76
2022/01/16 12:46:39;;;;;;;70.47;39.72;;;;;;;4.00;91.78;102461.59;5030019;28;20544;-75
2022/01/16 12:49:19;;;;;;;71.43;37.72;;;;;;;4.01;92.36;102455.56;5026936;28;20482;-76
2022/01/16 12:51:53;;;;;;;68.03;39.00;;;;;;;4.00;91.93;102458.97;5045026;28;20159;-76
2022/01/16 12:54:25;;;;;;;69.70;37.88;;;;;;;4.01;91.87;102454.66;5045626;28;20029;-75
2022/01/16 12:57:01;;;;;;;70.82;37.38;;;;;;;4.05;92.07;102461.75;5030829;28;20028;-74
2022/01/16 12:59:30;;;;;;;66.88;35.83;;;;;;;4.07;92.60;102458.41;5026839;28;20663;-75
2022/01/16 13:02:02;;;;;;;66.03;38.53;;;;;;;4.12;92.20;102461.19;5030432;28;20091;-76
2022/01/16 13:04:34;;;;;;;71.45;38.88;;;;;;;4.13;91.77;102456.06;5014445;28;20040;-76
2022/01/16 13:07:03;;;;;;;63.22;35.58;;;;;;;4.18;91.84;102460.56;5028359;28;20025;-75
2022/01/16 13:09:29;;;;;;;60.92;34.95;;;;;;;4.19;91.63;102454.56;5027111;28;20028;-76
2022/01/16 13:11:59;;;;;;;62.95;33.75;;;;;;;4.18;90.81;102451.09;5014009;28;20400;-76
2022/01/16 13:14:28;;;;;;;63.38;35.10;;;;;;;4.22;91.28;102444.28;5035495;28;20085;-76
2022/01/16 13:16:57;;;;;;;61.33;35.85;;;;;;;4.26;91.09;102438.41;5031210;28;20016;-75
2022/01/16 13:19:25;;;;;;;55.25;33.88;;;;;;;4.28;91.04;102442.84;5031233;28;20386;-72
2022/01/16 13:22:05;;;;;;;52.38;30.92;;;;;;;4.30;90.90;102438.56;5029370;28;20039;-71
2022/01/16 13:24:32;;;;;;;47.28;30.52;;;;;;;4.33;90.49;102430.91;5031777;28;20074;-72
2022/01/16 13:27:02;;;;;;;57.30;31.00;;;;;;;4.38;90.78;102443.19;5033572;28;20380;-72
2022/01/16 13:29:29;;;;;;;53.08;30.92;;;;;;;4.43;90.64;102439.94;5028484;28;20037;-72
2022/01/16 13:31:54;;;;;;;50.28;30.42;;;;;;;4.49;90.36;102449.69;5020598;28;20075;-72
2022/01/16 13:34:39;;;;;;;54.22;31.58;;;;;;;4.54;90.01;102452.47;5015896;28;20711;-71
2022/01/16 13:37:07;;;;;;;45.78;26.90;;;;;;;4.48;89.54;102451.41;5037440;28;20437;-72
2022/01/16 13:39:36;;;;;;;50.25;30.33;;;;;;;4.48;89.72;102448.81;5025366;28;20381;-72
2022/01/16 13:42:16;;;;;;;45.47;27.13;;;;;;;4.51;89.39;102448.03;5043553;28;20125;-72
2022/01/16 13:44:41;;;;;;;44.72;27.85;;;;;;;4.48;89.29;102454.00;5028895;28;20033;-72